sensor_id;sensor_type;location;lat;lon;timestamp;temperature;humidity
35804;DHT22;21924;51.934;7.414;2024-03-17T00:01:38;4.20;99.90
35804;DHT22;21924;51.934;7.414;2024-03-17T00:04:34;4.20;99.90
35804;DHT22;21924;51.934;7.414;2024-03-17T00:07:18;4.20;99.90
35804;DHT22;21924;51.934;7.414;2024-03-17T00:10:03;4.20;99.90
35804;DHT22;21924;51.934;7.414;2024-03-17T00:12:48;4.20;99.90
35804;DHT22;21924;51.934;7.414;2024-03-17T00:15:32;4.20;99.90
35804;DHT22;21924;51.934;7.414;2024-03-17T00:18:16;4.20;99.90
35804;DHT22;21924;51.934;7.414;2024-03-17T00:21:03;4.40;99.90
35804;DHT22;21924;51.934;7.414;2024-03-17T00:23:48;4.30;99.90
35804;DHT22;21924;51.934;7.414;2024-03-17T00:26:35;4.30;99.90
35804;DHT22;21924;51.934;7.414;2024-03-17T00:29:19;4.20;99.90
35804;DHT22;21924;51.934;7.414;2024-03-17T00:32:04;4.20;99.90
35804;DHT22;21924;51.934;7.414;2024-03-17T00:34:48;4.10;99.90
35804;DHT22;21924;51.934;7.414;2024-03-17T00:37:33;4.10;99.90
35804;DHT22;21924;51.934;7.414;2024-03-17T00:40:17;4.20;99.90
35804;DHT22;21924;51.934;7.414;2024-03-17T00:43:01;4.20;99.90
35804;DHT22;21924;51.934;7.414;2024-03-17T00:45:51;4.20;99.90
35804;DHT22;21924;51.934;7.414;2024-03-17T00:48:38;4.20;99.90
35804;DHT22;21924;51.934;7.414;2024-03-17T00:51:23;4.30;99.90
35804;DHT22;21924;51.934;7.414;2024-03-17T00:54:10;4.30;99.90
35804;DHT22;21924;51.934;7.414;2024-03-17T00:57:01;4.30;99.90
35804;DHT22;21924;51.934;7.414;2024-03-17T00:59:46;4.30;99.90
35804;DHT22;21924;51.934;7.414;2024-03-17T01:02:30;4.20;99.90
35804;DHT22;21924;51.934;7.414;2024-03-17T01:05:14;4.20;99.90
35804;DHT22;21924;51.934;7.414;2024-03-17T01:07:58;4.20;99.90
35804;DHT22;21924;51.934;7.414;2024-03-17T01:10:42;4.10;99.90
35804;DHT22;21924;51.934;7.414;2024-03-17T01:13:27;4.00;99.90
35804;DHT22;21924;51.934;7.414;2024-03-17T01:16:11;4.00;99.90
35804;DHT22;21924;51.934;7.414;2024-03-17T01:18:55;4.00;99.90
35804;DHT22;21924;51.934;7.414;2024-03-17T01:21:39;3.90;99.90
35804;DHT22;21924;51.934;7.414;2024-03-17T01:24:23;3.90;99.90
35804;DHT22;21924;51.934;7.414;2024-03-17T01:27:08;3.90;99.90
35804;DHT22;21924;51.934;7.414;2024-03-17T01:29:58;3.80;99.90
35804;DHT22;21924;51.934;7.414;2024-03-17T01:32:46;3.80;99.90
35804;DHT22;21924;51.934;7.414;2024-03-17T01:35:30;3.80;99.90
35804;DHT22;21924;51.934;7.414;2024-03-17T01:38:15;3.80;99.90
35804;DHT22;21924;51.934;7.414;2024-03-17T01:40:59;3.80;99.90
35804;DHT22;21924;51.934;7.414;2024-03-17T01:43:43;3.70;99.90
35804;DHT22;21924;51.934;7.414;2024-03-17T01:46:27;3.70;99.90
35804;DHT22;21924;51.934;7.414;2024-03-17T01:49:12;3.70;99.90
35804;DHT22;21924;51.934;7.414;2024-03-17T01:51:56;3.60;99.90
35804;DHT22;21924;51.934;7.414;2024-03-17T01:54:41;3.70;99.90
35804;DHT22;21924;51.934;7.414;2024-03-17T01:57:25;3.70;99.90
35804;DHT22;21924;51.934;7.414;2024-03-17T02:00:10;3.70;99.90
35804;DHT22;21924;51.934;7.414;2024-03-17T02:02:56;3.70;99.90
35804;DHT22;21924;51.934;7.414;2024-03-17T02:05:40;3.60;99.90
35804;DHT22;21924;51.934;7.414;2024-03-17T02:08:25;3.60;99.90
35804;DHT22;21924;51.934;7.414;2024-03-17T02:11:10;3.60;99.90
35804;DHT22;21924;51.934;7.414;2024-03-17T02:14:06;3.60;99.90
35804;DHT22;21924;51.934;7.414;2024-03-17T02:16:51;3.50;99.90
35804;DHT22;21924;51.934;7.414;2024-03-17T02:19:35;3.40;99.90
35804;DHT22;21924;51.934;7.414;2024-03-17T02:22:20;3.50;99.90
35804;DHT22;21924;51.934;7.414;2024-03-17T02:25:07;3.50;99.90
35804;DHT22;21924;51.934;7.414;2024-03-17T02:27:51;3.40;99.90
35804;DHT22;21924;51.934;7.414;2024-03-17T02:30:36;3.40;99.90
35804;DHT22;21924;51.934;7.414;2024-03-17T02:33:21;3.40;99.90
35804;DHT22;21924;51.934;7.414;2024-03-17T02:36:07;3.40;99.90
35804;DHT22;21924;51.934;7.414;2024-03-17T02:38:51;3.40;99.90
35804;DHT22;21924;51.934;7.414;2024-03-17T02:41:58;3.50;99.90
35804;DHT22;21924;51.934;7.414;2024-03-17T02:44:43;3.40;99.90
35804;DHT22;21924;51.934;7.414;2024-03-17T02:47:27;3.50;99.90
35804;DHT22;21924;51.934;7.414;2024-03-17T02:50:11;3.60;99.90
35804;DHT22;21924;51.934;7.414;2024-03-17T02:52:56;3.50;99.90
35804;DHT22;21924;51.934;7.414;2024-03-17T02:55:40;3.50;99.90
35804;DHT22;21924;51.934;7.414;2024-03-17T02:58:24;3.50;99.90
35804;DHT22;21924;51.934;7.414;2024-03-17T03:01:08;3.50;99.90
35804;DHT22;21924;51.934;7.414;2024-03-17T03:03:53;3.50;99.90
35804;DHT22;21924;51.934;7.414;2024-03-17T03:06:38;3.40;99.90
35804;DHT22;21924;51.934;7.414;2024-03-17T03:09:22;3.40;99.90
35804;DHT22;21924;51.934;7.414;2024-03-17T03:12:36;3.40;99.90
35804;DHT22;21924;51.934;7.414;2024-03-17T03:15:19;3.40;99.90
35804;DHT22;21924;51.934;7.414;2024-03-17T03:18:03;3.30;99.90
35804;DHT22;21924;51.934;7.414;2024-03-17T03:20:51;3.30;99.90
35804;DHT22;21924;51.934;7.414;2024-03-17T03:23:36;3.30;99.90
35804;DHT22;21924;51.934;7.414;2024-03-17T03:26:21;3.20;99.90
35804;DHT22;21924;51.934;7.414;2024-03-17T03:29:05;3.20;99.90
35804;DHT22;21924;51.934;7.414;2024-03-17T03:31:49;3.20;99.90
35804;DHT22;21924;51.934;7.414;2024-03-17T03:34:33;3.20;99.90
35804;DHT22;21924;51.934;7.414;2024-03-17T03:37:18;3.30;99.90
35804;DHT22;21924;51.934;7.414;2024-03-17T03:40:02;3.30;99.90
35804;DHT22;21924;51.934;7.414;2024-03-17T03:42:59;3.30;99.90
35804;DHT22;21924;51.934;7.414;2024-03-17T03:45:44;3.30;99.90
35804;DHT22;21924;51.934;7.414;2024-03-17T03:48:28;3.30;99.90
35804;DHT22;21924;51.934;7.414;2024-03-17T03:51:12;3.30;99.90
35804;DHT22;21924;51.934;7.414;2024-03-17T03:53:57;3.30;99.90
35804;DHT22;21924;51.934;7.414;2024-03-17T03:56:41;3.30;99.90
35804;DHT22;21924;51.934;7.414;2024-03-17T03:59:25;3.30;99.90
35804;DHT22;21924;51.934;7.414;2024-03-17T04:02:10;3.30;99.90
35804;DHT22;21924;51.934;7.414;2024-03-17T04:04:54;3.30;99.90
35804;DHT22;21924;51.934;7.414;2024-03-17T04:07:38;3.30;99.90
35804;DHT22;21924;51.934;7.414;2024-03-17T04:10:23;3.30;99.90
35804;DHT22;21924;51.934;7.414;2024-03-17T04:13:08;3.20;99.90
35804;DHT22;21924;51.934;7.414;2024-03-17T04:15:53;3.20;99.90
35804;DHT22;21924;51.934;7.414;2024-03-17T04:18:40;3.20;99.90
35804;DHT22;21924;51.934;7.414;2024-03-17T04:21:24;3.20;99.90
35804;DHT22;21924;51.934;7.414;2024-03-17T04:24:09;3.10;99.90
35804;DHT22;21924;51.934;7.414;2024-03-17T04:26:53;3.20;99.90
35804;DHT22;21924;51.934;7.414;2024-03-17T04:29:37;3.00;99.90
35804;DHT22;21924;51.934;7.414;2024-03-17T04:32:22;3.00;99.90
35804;DHT22;21924;51.934;7.414;2024-03-17T04:35:06;3.00;99.90
35804;DHT22;21924;51.934;7.414;2024-03-17T04:37:51;3.00;99.90
35804;DHT22;21924;51.934;7.414;2024-03-17T04:40:39;2.90;99.90
35804;DHT22;21924;51.934;7.414;2024-03-17T04:43:24;2.90;99.90
35804;DHT22;21924;51.934;7.414;2024-03-17T04:46:08;2.90;99.90
35804;DHT22;21924;51.934;7.414;2024-03-17T04:48:55;2.90;99.90
35804;DHT22;21924;51.934;7.414;2024-03-17T04:51:40;3.00;99.90
35804;DHT22;21924;51.934;7.414;2024-03-17T04:54:24;3.00;99.90
35804;DHT22;21924;51.934;7.414;2024-03-17T04:57:08;3.10;99.90
35804;DHT22;21924;51.934;7.414;2024-03-17T04:59:53;3.10;99.90
35804;DHT22;21924;51.934;7.414;2024-03-17T05:02:37;3.10;99.90
35804;DHT22;21924;51.934;7.414;2024-03-17T05:05:24;3.20;99.90
35804;DHT22;21924;51.934;7.414;2024-03-17T05:08:09;3.20;99.90
35804;DHT22;21924;51.934;7.414;2024-03-17T05:10:57;3.20;99.90
35804;DHT22;21924;51.934;7.414;2024-03-17T05:13:41;3.30;99.90
35804;DHT22;21924;51.934;7.414;2024-03-17T05:16:26;3.30;99.90
35804;DHT22;21924;51.934;7.414;2024-03-17T05:19:13;3.40;99.90
35804;DHT22;21924;51.934;7.414;2024-03-17T05:21:57;3.30;99.90
35804;DHT22;21924;51.934;7.414;2024-03-17T05:24:41;3.40;99.90
35804;DHT22;21924;51.934;7.414;2024-03-17T05:27:25;3.50;99.90
35804;DHT22;21924;51.934;7.414;2024-03-17T05:30:10;3.60;99.90
35804;DHT22;21924;51.934;7.414;2024-03-17T05:32:54;3.60;99.90
35804;DHT22;21924;51.934;7.414;2024-03-17T05:35:38;3.60;99.90
35804;DHT22;21924;51.934;7.414;2024-03-17T05:38:23;3.60;99.90
35804;DHT22;21924;51.934;7.414;2024-03-17T05:41:11;3.70;99.90
35804;DHT22;21924;51.934;7.414;2024-03-17T05:43:55;3.70;99.90
35804;DHT22;21924;51.934;7.414;2024-03-17T05:46:42;3.70;99.90
35804;DHT22;21924;51.934;7.414;2024-03-17T05:49:26;3.80;99.90
35804;DHT22;21924;51.934;7.414;2024-03-17T05:52:11;3.80;99.90
35804;DHT22;21924;51.934;7.414;2024-03-17T05:54:55;3.80;99.90
35804;DHT22;21924;51.934;7.414;2024-03-17T05:57:39;3.80;99.90
35804;DHT22;21924;51.934;7.414;2024-03-17T06:00:23;3.80;99.90
35804;DHT22;21924;51.934;7.414;2024-03-17T06:03:08;3.80;99.90
35804;DHT22;21924;51.934;7.414;2024-03-17T06:05:52;3.90;99.90
35804;DHT22;21924;51.934;7.414;2024-03-17T06:08:37;3.90;99.90
35804;DHT22;21924;51.934;7.414;2024-03-17T06:11:22;3.90;99.90
35804;DHT22;21924;51.934;7.414;2024-03-17T06:14:07;4.00;99.90
35804;DHT22;21924;51.934;7.414;2024-03-17T06:16:53;4.00;99.90
35804;DHT22;21924;51.934;7.414;2024-03-17T06:19:37;4.10;99.90
35804;DHT22;21924;51.934;7.414;2024-03-17T06:22:22;4.20;99.90
35804;DHT22;21924;51.934;7.414;2024-03-17T06:25:06;4.30;99.90
35804;DHT22;21924;51.934;7.414;2024-03-17T06:27:51;4.40;99.90
35804;DHT22;21924;51.934;7.414;2024-03-17T06:30:35;4.50;99.90
35804;DHT22;21924;51.934;7.414;2024-03-17T06:33:20;4.60;99.90
35804;DHT22;21924;51.934;7.414;2024-03-17T06:36:04;4.70;99.90
35804;DHT22;21924;51.934;7.414;2024-03-17T06:38:49;4.70;99.90
35804;DHT22;21924;51.934;7.414;2024-03-17T06:41:33;4.80;99.90
35804;DHT22;21924;51.934;7.414;2024-03-17T06:44:18;4.80;99.90
35804;DHT22;21924;51.934;7.414;2024-03-17T06:47:02;4.90;99.90
35804;DHT22;21924;51.934;7.414;2024-03-17T06:49:47;4.90;99.90
35804;DHT22;21924;51.934;7.414;2024-03-17T06:52:31;4.90;99.90
35804;DHT22;21924;51.934;7.414;2024-03-17T06:55:16;4.90;99.90
35804;DHT22;21924;51.934;7.414;2024-03-17T06:58:00;5.00;99.90
35804;DHT22;21924;51.934;7.414;2024-03-17T07:00:51;5.10;99.90
35804;DHT22;21924;51.934;7.414;2024-03-17T07:03:36;5.10;99.90
35804;DHT22;21924;51.934;7.414;2024-03-17T07:06:20;5.10;99.90
35804;DHT22;21924;51.934;7.414;2024-03-17T07:09:04;5.20;99.90
35804;DHT22;21924;51.934;7.414;2024-03-17T07:11:49;5.20;99.90
35804;DHT22;21924;51.934;7.414;2024-03-17T07:14:33;5.20;99.90
35804;DHT22;21924;51.934;7.414;2024-03-17T07:17:18;5.20;99.90
35804;DHT22;21924;51.934;7.414;2024-03-17T07:20:02;5.20;99.90
35804;DHT22;21924;51.934;7.414;2024-03-17T07:22:48;5.20;99.90
35804;DHT22;21924;51.934;7.414;2024-03-17T07:25:32;5.20;99.90
35804;DHT22;21924;51.934;7.414;2024-03-17T07:28:16;5.20;99.90
35804;DHT22;21924;51.934;7.414;2024-03-17T07:31:01;5.10;99.90
35804;DHT22;21924;51.934;7.414;2024-03-17T07:33:45;5.00;99.90
35804;DHT22;21924;51.934;7.414;2024-03-17T07:36:30;5.00;99.90
35804;DHT22;21924;51.934;7.414;2024-03-17T07:39:14;5.00;99.90
35804;DHT22;21924;51.934;7.414;2024-03-17T07:41:58;4.90;99.90
35804;DHT22;21924;51.934;7.414;2024-03-17T07:44:43;4.90;99.90
35804;DHT22;21924;51.934;7.414;2024-03-17T07:47:27;4.90;99.90
35804;DHT22;21924;51.934;7.414;2024-03-17T07:50:19;5.00;99.90
35804;DHT22;21924;51.934;7.414;2024-03-17T07:53:03;5.00;99.90
35804;DHT22;21924;51.934;7.414;2024-03-17T07:55:56;5.00;99.90
35804;DHT22;21924;51.934;7.414;2024-03-17T07:58:40;5.10;99.90
35804;DHT22;21924;51.934;7.414;2024-03-17T08:01:25;5.20;99.90
35804;DHT22;21924;51.934;7.414;2024-03-17T08:04:09;5.40;99.90
35804;DHT22;21924;51.934;7.414;2024-03-17T08:06:56;5.50;99.90
35804;DHT22;21924;51.934;7.414;2024-03-17T08:09:40;5.70;99.90
35804;DHT22;21924;51.934;7.414;2024-03-17T08:12:24;5.90;99.90
35804;DHT22;21924;51.934;7.414;2024-03-17T08:15:08;6.00;99.90
35804;DHT22;21924;51.934;7.414;2024-03-17T08:17:53;6.10;99.90
35804;DHT22;21924;51.934;7.414;2024-03-17T08:20:40;6.20;99.90
35804;DHT22;21924;51.934;7.414;2024-03-17T08:23:26;6.40;99.90
35804;DHT22;21924;51.934;7.414;2024-03-17T08:26:10;6.60;99.90
35804;DHT22;21924;51.934;7.414;2024-03-17T08:28:54;6.80;99.90
35804;DHT22;21924;51.934;7.414;2024-03-17T08:31:39;7.00;99.90
35804;DHT22;21924;51.934;7.414;2024-03-17T08:34:23;7.20;99.90
35804;DHT22;21924;51.934;7.414;2024-03-17T08:37:07;7.50;99.90
35804;DHT22;21924;51.934;7.414;2024-03-17T08:39:53;7.60;99.90
35804;DHT22;21924;51.934;7.414;2024-03-17T08:42:37;7.80;99.90
35804;DHT22;21924;51.934;7.414;2024-03-17T08:45:21;7.80;99.90
35804;DHT22;21924;51.934;7.414;2024-03-17T08:48:05;8.00;99.90
35804;DHT22;21924;51.934;7.414;2024-03-17T08:50:53;8.00;99.90
35804;DHT22;21924;51.934;7.414;2024-03-17T08:53:37;8.20;99.90
35804;DHT22;21924;51.934;7.414;2024-03-17T08:56:23;8.30;99.90
35804;DHT22;21924;51.934;7.414;2024-03-17T08:59:08;8.50;99.90
35804;DHT22;21924;51.934;7.414;2024-03-17T09:01:54;8.70;99.90
35804;DHT22;21924;51.934;7.414;2024-03-17T09:04:38;8.70;99.90
35804;DHT22;21924;51.934;7.414;2024-03-17T09:07:23;8.70;99.90
35804;DHT22;21924;51.934;7.414;2024-03-17T09:10:07;8.80;99.90
35804;DHT22;21924;51.934;7.414;2024-03-17T09:12:52;8.90;99.90
35804;DHT22;21924;51.934;7.414;2024-03-17T09:15:37;9.00;99.90
35804;DHT22;21924;51.934;7.414;2024-03-17T09:18:21;9.00;99.90
35804;DHT22;21924;51.934;7.414;2024-03-17T09:21:06;9.10;99.90
35804;DHT22;21924;51.934;7.414;2024-03-17T09:23:51;8.90;99.90
35804;DHT22;21924;51.934;7.414;2024-03-17T09:26:35;8.90;99.90
35804;DHT22;21924;51.934;7.414;2024-03-17T09:29:20;8.80;99.90
35804;DHT22;21924;51.934;7.414;2024-03-17T09:32:04;9.00;99.90
35804;DHT22;21924;51.934;7.414;2024-03-17T09:34:48;9.10;99.90
35804;DHT22;21924;51.934;7.414;2024-03-17T09:37:32;9.20;99.90
35804;DHT22;21924;51.934;7.414;2024-03-17T09:40:17;9.30;99.90
35804;DHT22;21924;51.934;7.414;2024-03-17T09:43:01;9.40;99.90
35804;DHT22;21924;51.934;7.414;2024-03-17T09:45:46;9.60;99.90
35804;DHT22;21924;51.934;7.414;2024-03-17T09:48:30;9.70;99.90
35804;DHT22;21924;51.934;7.414;2024-03-17T09:51:21;9.90;99.90
35804;DHT22;21924;51.934;7.414;2024-03-17T09:54:27;9.90;99.90
35804;DHT22;21924;51.934;7.414;2024-03-17T09:57:15;10.00;99.90
35804;DHT22;21924;51.934;7.414;2024-03-17T10:00:00;10.00;99.90
35804;DHT22;21924;51.934;7.414;2024-03-17T10:02:48;10.10;99.90
35804;DHT22;21924;51.934;7.414;2024-03-17T10:05:32;10.20;99.90
35804;DHT22;21924;51.934;7.414;2024-03-17T10:08:23;10.20;99.90
35804;DHT22;21924;51.934;7.414;2024-03-17T10:11:08;10.10;99.90
35804;DHT22;21924;51.934;7.414;2024-03-17T10:13:59;10.10;99.90
35804;DHT22;21924;51.934;7.414;2024-03-17T10:16:43;10.10;99.90
35804;DHT22;21924;51.934;7.414;2024-03-17T10:19:31;10.20;99.90
35804;DHT22;21924;51.934;7.414;2024-03-17T10:22:15;10.30;99.90
35804;DHT22;21924;51.934;7.414;2024-03-17T10:24:59;10.40;99.90
35804;DHT22;21924;51.934;7.414;2024-03-17T10:27:43;10.50;99.90
35804;DHT22;21924;51.934;7.414;2024-03-17T10:30:28;10.70;99.90
35804;DHT22;21924;51.934;7.414;2024-03-17T10:33:23;10.80;99.90
35804;DHT22;21924;51.934;7.414;2024-03-17T10:36:15;10.90;99.90
35804;DHT22;21924;51.934;7.414;2024-03-17T10:39:01;10.90;99.90
35804;DHT22;21924;51.934;7.414;2024-03-17T10:41:45;11.10;99.90
35804;DHT22;21924;51.934;7.414;2024-03-17T10:44:32;11.10;99.90
35804;DHT22;21924;51.934;7.414;2024-03-17T10:47:22;11.20;99.90
35804;DHT22;21924;51.934;7.414;2024-03-17T10:50:06;11.50;99.90
35804;DHT22;21924;51.934;7.414;2024-03-17T10:52:58;11.70;99.90
35804;DHT22;21924;51.934;7.414;2024-03-17T10:55:46;11.80;99.90
35804;DHT22;21924;51.934;7.414;2024-03-17T11:01:15;11.70;99.90
35804;DHT22;21924;51.934;7.414;2024-03-17T11:03:59;11.80;99.90
35804;DHT22;21924;51.934;7.414;2024-03-17T11:06:44;12.00;99.90
35804;DHT22;21924;51.934;7.414;2024-03-17T11:09:30;12.00;99.90
35804;DHT22;21924;51.934;7.414;2024-03-17T11:15:34;12.10;99.90
35804;DHT22;21924;51.934;7.414;2024-03-17T11:21:19;12.50;99.90
35804;DHT22;21924;51.934;7.414;2024-03-17T11:24:04;12.30;99.90
35804;DHT22;21924;51.934;7.414;2024-03-17T11:26:49;12.60;99.90
35804;DHT22;21924;51.934;7.414;2024-03-17T11:29:33;12.70;99.90
35804;DHT22;21924;51.934;7.414;2024-03-17T11:32:26;12.60;99.90
35804;DHT22;21924;51.934;7.414;2024-03-17T11:35:14;12.60;99.90
35804;DHT22;21924;51.934;7.414;2024-03-17T11:37:59;12.70;99.90
35804;DHT22;21924;51.934;7.414;2024-03-17T11:40:43;12.80;99.90
35804;DHT22;21924;51.934;7.414;2024-03-17T11:43:27;12.70;99.90
35804;DHT22;21924;51.934;7.414;2024-03-17T11:46:11;12.50;99.90
35804;DHT22;21924;51.934;7.414;2024-03-17T11:48:57;12.60;99.90
35804;DHT22;21924;51.934;7.414;2024-03-17T11:51:41;12.70;99.90
35804;DHT22;21924;51.934;7.414;2024-03-17T11:54:29;12.80;99.90
35804;DHT22;21924;51.934;7.414;2024-03-17T11:57:15;12.70;99.90
35804;DHT22;21924;51.934;7.414;2024-03-17T12:00:01;12.80;99.90
35804;DHT22;21924;51.934;7.414;2024-03-17T12:02:48;12.80;99.90
35804;DHT22;21924;51.934;7.414;2024-03-17T12:05:32;12.80;99.90
35804;DHT22;21924;51.934;7.414;2024-03-17T12:08:19;12.90;99.90
35804;DHT22;21924;51.934;7.414;2024-03-17T12:11:04;13.00;99.90
35804;DHT22;21924;51.934;7.414;2024-03-17T12:13:50;12.90;99.90
35804;DHT22;21924;51.934;7.414;2024-03-17T12:16:34;13.00;99.90
35804;DHT22;21924;51.934;7.414;2024-03-17T12:19:19;13.00;99.90
35804;DHT22;21924;51.934;7.414;2024-03-17T12:22:04;13.10;99.90
35804;DHT22;21924;51.934;7.414;2024-03-17T12:24:49;13.30;99.90
35804;DHT22;21924;51.934;7.414;2024-03-17T12:27:34;13.30;99.90
35804;DHT22;21924;51.934;7.414;2024-03-17T12:30:18;13.20;99.90
35804;DHT22;21924;51.934;7.414;2024-03-17T12:33:02;13.20;99.90
35804;DHT22;21924;51.934;7.414;2024-03-17T12:35:48;13.20;99.90
35804;DHT22;21924;51.934;7.414;2024-03-17T12:38:36;12.80;99.90
35804;DHT22;21924;51.934;7.414;2024-03-17T12:41:20;12.80;99.90
35804;DHT22;21924;51.934;7.414;2024-03-17T12:44:07;12.80;99.90
35804;DHT22;21924;51.934;7.414;2024-03-17T12:47:04;13.20;99.90
35804;DHT22;21924;51.934;7.414;2024-03-17T12:49:49;12.80;99.90
35804;DHT22;21924;51.934;7.414;2024-03-17T12:52:36;12.80;99.90
35804;DHT22;21924;51.934;7.414;2024-03-17T12:55:21;12.80;99.90
35804;DHT22;21924;51.934;7.414;2024-03-17T12:58:24;12.60;99.90
35804;DHT22;21924;51.934;7.414;2024-03-17T13:01:27;12.70;99.90
35804;DHT22;21924;51.934;7.414;2024-03-17T13:04:11;12.90;99.90
35804;DHT22;21924;51.934;7.414;2024-03-17T13:06:56;13.20;99.90
35804;DHT22;21924;51.934;7.414;2024-03-17T13:09:40;13.30;99.90
35804;DHT22;21924;51.934;7.414;2024-03-17T13:12:24;13.20;99.90
35804;DHT22;21924;51.934;7.414;2024-03-17T13:15:10;12.90;99.90
35804;DHT22;21924;51.934;7.414;2024-03-17T13:17:55;12.80;99.90
35804;DHT22;21924;51.934;7.414;2024-03-17T13:20:39;12.90;99.90
35804;DHT22;21924;51.934;7.414;2024-03-17T13:23:23;12.70;99.90
35804;DHT22;21924;51.934;7.414;2024-03-17T13:26:08;12.90;99.90
35804;DHT22;21924;51.934;7.414;2024-03-17T13:28:53;12.50;99.90
35804;DHT22;21924;51.934;7.414;2024-03-17T13:31:37;12.60;99.90
35804;DHT22;21924;51.934;7.414;2024-03-17T13:34:21;12.60;99.90
35804;DHT22;21924;51.934;7.414;2024-03-17T13:37:06;12.60;99.90
35804;DHT22;21924;51.934;7.414;2024-03-17T13:39:51;12.70;99.90
35804;DHT22;21924;51.934;7.414;2024-03-17T13:42:35;12.70;99.90
35804;DHT22;21924;51.934;7.414;2024-03-17T13:45:20;12.80;99.90
35804;DHT22;21924;51.934;7.414;2024-03-17T13:48:07;13.10;99.90
35804;DHT22;21924;51.934;7.414;2024-03-17T13:51:02;13.10;99.90
35804;DHT22;21924;51.934;7.414;2024-03-17T13:53:51;13.20;99.90
35804;DHT22;21924;51.934;7.414;2024-03-17T13:56:35;13.30;99.90
35804;DHT22;21924;51.934;7.414;2024-03-17T13:59:20;13.30;99.90
35804;DHT22;21924;51.934;7.414;2024-03-17T14:02:06;13.20;99.90
35804;DHT22;21924;51.934;7.414;2024-03-17T14:04:52;13.10;99.90
35804;DHT22;21924;51.934;7.414;2024-03-17T14:07:36;13.10;99.90
35804;DHT22;21924;51.934;7.414;2024-03-17T14:10:21;13.20;99.90
35804;DHT22;21924;51.934;7.414;2024-03-17T14:13:05;13.20;99.90
35804;DHT22;21924;51.934;7.414;2024-03-17T14:15:49;13.20;99.90
35804;DHT22;21924;51.934;7.414;2024-03-17T14:18:33;13.10;99.90
35804;DHT22;21924;51.934;7.414;2024-03-17T14:21:18;12.90;99.90
35804;DHT22;21924;51.934;7.414;2024-03-17T14:24:02;12.80;99.90
35804;DHT22;21924;51.934;7.414;2024-03-17T14:26:50;12.90;99.90
35804;DHT22;21924;51.934;7.414;2024-03-17T14:29:35;13.00;99.90
35804;DHT22;21924;51.934;7.414;2024-03-17T14:32:19;13.10;99.90
35804;DHT22;21924;51.934;7.414;2024-03-17T14:35:03;12.80;99.90
35804;DHT22;21924;51.934;7.414;2024-03-17T14:37:49;12.60;99.90
35804;DHT22;21924;51.934;7.414;2024-03-17T14:40:35;12.60;99.90
35804;DHT22;21924;51.934;7.414;2024-03-17T14:43:19;12.60;99.90
35804;DHT22;21924;51.934;7.414;2024-03-17T14:46:04;12.80;99.90
35804;DHT22;21924;51.934;7.414;2024-03-17T14:48:51;12.90;99.90
35804;DHT22;21924;51.934;7.414;2024-03-17T14:51:36;13.00;99.90
35804;DHT22;21924;51.934;7.414;2024-03-17T14:54:20;12.60;99.90
35804;DHT22;21924;51.934;7.414;2024-03-17T14:57:04;12.60;99.90
35804;DHT22;21924;51.934;7.414;2024-03-17T14:59:49;12.40;99.90
35804;DHT22;21924;51.934;7.414;2024-03-17T15:02:33;12.50;99.90
35804;DHT22;21924;51.934;7.414;2024-03-17T15:05:17;12.40;99.90
35804;DHT22;21924;51.934;7.414;2024-03-17T15:08:06;12.30;99.90
35804;DHT22;21924;51.934;7.414;2024-03-17T15:10:54;12.30;99.90
35804;DHT22;21924;51.934;7.414;2024-03-17T15:13:38;12.20;99.90
35804;DHT22;21924;51.934;7.414;2024-03-17T15:16:23;12.30;99.90
35804;DHT22;21924;51.934;7.414;2024-03-17T15:19:08;12.20;99.90
35804;DHT22;21924;51.934;7.414;2024-03-17T15:21:52;12.20;99.90
35804;DHT22;21924;51.934;7.414;2024-03-17T15:24:36;12.20;99.90
35804;DHT22;21924;51.934;7.414;2024-03-17T15:27:21;12.20;99.90
35804;DHT22;21924;51.934;7.414;2024-03-17T15:30:05;12.20;99.90
35804;DHT22;21924;51.934;7.414;2024-03-17T15:32:50;12.10;99.90
35804;DHT22;21924;51.934;7.414;2024-03-17T15:35:38;12.10;99.90
35804;DHT22;21924;51.934;7.414;2024-03-17T15:38:26;12.10;99.90
35804;DHT22;21924;51.934;7.414;2024-03-17T15:41:11;12.10;99.90
35804;DHT22;21924;51.934;7.414;2024-03-17T15:43:55;12.10;99.90
35804;DHT22;21924;51.934;7.414;2024-03-17T15:46:39;12.10;99.90
35804;DHT22;21924;51.934;7.414;2024-03-17T15:49:44;12.10;99.90
35804;DHT22;21924;51.934;7.414;2024-03-17T15:52:28;12.00;99.90
35804;DHT22;21924;51.934;7.414;2024-03-17T15:55:13;12.10;99.90
35804;DHT22;21924;51.934;7.414;2024-03-17T15:57:59;12.00;99.90
35804;DHT22;21924;51.934;7.414;2024-03-17T16:00:43;12.00;99.90
35804;DHT22;21924;51.934;7.414;2024-03-17T16:03:29;12.00;99.90
35804;DHT22;21924;51.934;7.414;2024-03-17T16:06:15;11.90;99.90
35804;DHT22;21924;51.934;7.414;2024-03-17T16:09:03;11.90;99.90
35804;DHT22;21924;51.934;7.414;2024-03-17T16:11:49;11.90;99.90
35804;DHT22;21924;51.934;7.414;2024-03-17T16:14:34;11.80;99.90
35804;DHT22;21924;51.934;7.414;2024-03-17T16:17:18;11.80;99.90
35804;DHT22;21924;51.934;7.414;2024-03-17T16:20:02;11.70;99.90
35804;DHT22;21924;51.934;7.414;2024-03-17T16:22:53;11.70;99.90
35804;DHT22;21924;51.934;7.414;2024-03-17T16:25:38;11.70;99.90
35804;DHT22;21924;51.934;7.414;2024-03-17T16:28:24;11.70;99.90
35804;DHT22;21924;51.934;7.414;2024-03-17T16:31:08;11.70;99.90
35804;DHT22;21924;51.934;7.414;2024-03-17T16:33:52;11.60;99.90
35804;DHT22;21924;51.934;7.414;2024-03-17T16:36:43;11.60;99.90
35804;DHT22;21924;51.934;7.414;2024-03-17T16:39:30;11.60;99.90
35804;DHT22;21924;51.934;7.414;2024-03-17T16:42:14;11.50;99.90
35804;DHT22;21924;51.934;7.414;2024-03-17T16:45:05;11.50;99.90
35804;DHT22;21924;51.934;7.414;2024-03-17T16:47:50;11.50;99.90
35804;DHT22;21924;51.934;7.414;2024-03-17T16:50:34;11.50;99.90
35804;DHT22;21924;51.934;7.414;2024-03-17T16:53:32;11.50;99.90
35804;DHT22;21924;51.934;7.414;2024-03-17T16:56:22;11.40;99.90
35804;DHT22;21924;51.934;7.414;2024-03-17T16:59:25;11.40;99.90
35804;DHT22;21924;51.934;7.414;2024-03-17T17:02:39;11.40;99.90
35804;DHT22;21924;51.934;7.414;2024-03-17T17:05:47;11.40;99.90
35804;DHT22;21924;51.934;7.414;2024-03-17T17:15:44;11.30;99.90
35804;DHT22;21924;51.934;7.414;2024-03-17T17:21:37;11.30;99.90
35804;DHT22;21924;51.934;7.414;2024-03-17T17:24:27;11.30;99.90
35804;DHT22;21924;51.934;7.414;2024-03-17T17:27:40;11.50;99.90
35804;DHT22;21924;51.934;7.414;2024-03-17T17:30:32;11.70;99.90
35804;DHT22;21924;51.934;7.414;2024-03-17T17:34:00;11.70;99.90
35804;DHT22;21924;51.934;7.414;2024-03-17T17:36:56;11.70;99.90
35804;DHT22;21924;51.934;7.414;2024-03-17T17:39:46;11.50;99.90
35804;DHT22;21924;51.934;7.414;2024-03-17T17:42:33;11.40;99.90
35804;DHT22;21924;51.934;7.414;2024-03-17T17:45:22;11.40;99.90
35804;DHT22;21924;51.934;7.414;2024-03-17T17:48:15;11.30;99.90
35804;DHT22;21924;51.934;7.414;2024-03-17T17:51:43;11.30;99.90
35804;DHT22;21924;51.934;7.414;2024-03-17T17:54:43;11.20;99.90
35804;DHT22;21924;51.934;7.414;2024-03-17T17:58:01;11.20;99.90
35804;DHT22;21924;51.934;7.414;2024-03-17T18:25:29;10.80;99.90